Sunday, February 14, 2016
12:51 UTC
  |  Log In   |  Register Free
Airport Search:

Alpena County Regional Airport
(KAPN)

FAA data valid effective Feb 4 2016 - Mar 31 2016 (unless otherwise noted).

 
 
 
 
 
 
 
 
 
 
 
 
 
 
Current Aviation Weather for KAPN

Weather Summary


The most recent METAR observation for APN was updated at: 12:54 UTC
METAR for KAPN is not available. Closest METAR is for KPZQ
KAPN  (most recent observation was updatred at 14:11 UTC)
141154Z AUTO 00000KT 10SM CLR M23/M26 A3043 RMK AO2 SLP327 60000 70001 T12331261 11156 21233 58001 $

KPZQ  (22.5 nm SE)   (most recent observation was updated at 14:12 UTC)
141235Z AUTO 21005KT 10SM CLR M18/M21 A3043 RMK AO2 T11851207

TAF for KAPN is not available.
KAPN
141130Z 1412/1512 24003KT P6SM SKC FM141600 17006KT P6SM SCT040 FM150700 17007KT P6SM OVC080 FM151100 16006KT 6SM -SN SCT025 OVC040

GlobalAir.com is loading additional information.
 Current Weather at APN
-7.0 F° (-21.7 C°)

Southwest winds at 3.5 mph
Pressure:
30.44 in
Humidity:
82%
Wind:
Southwest at 3.5 mph
Dew Point:
-11.0 F° (-23.9 C°)
Visibility:
10.00 mi
APN NOAA Radar




Find All Airport Services Find A Hotel Find A Rental Car Find A Golf Course Find A Restaurant $100 Hamburger



Airport Weather Forecast for KAPN

Translated METAR for KAPN (1154 UTC)
METAR:
KAPN 141154Z AUTO 00000KT 10SM CLR M23/M26 A3043 RMK AO2 SLP327 60000 70001 T12331261 11156 21233 58001 $
Conditions at:
KAPN (Alpena County Rgnl, MI) observed 1154 UTC 14 February 2016
Temperature:
-23°C (-9.4°F)
Dewpoint:
-26°C (-14.8°F) [RH = 76.4]
Pressure:
30.43 inches Hg (1030.5 mb)
pressure at sea level is 327 in Hg
Winds:
from the N (000 degrees) at 0 mph (0 knots: 0 m/s)
Visibility:
10 mile(s)
Ceiling:
at least 12,000 feet AGL
Clouds:
Clear below 12,000 feet AGL
Remarks:
site is un-manned
SOME DATA ABOVE MAY BE INACCURATE!!!
"$" is an indication the sensor requires maintenance
site is automated and HAS a precipitation sensor

Translated TAF for KAPN (Alpena County Rgnl, MI) (1130 UTC)
TAF text:
KAPN 141130Z 1412/1512 24003KT P6SM SKC
Forecast period:
Sunday Feb 14 2016 12:00 UTC - Monday Feb 15 2016 12:00 UTC
Forecast type:
FROM: standard forecast or significant change
Winds:
from the WSW (240 degrees) at 3.5 mph (3 knots: 1.5 m/s)
Visibility:
6 or more mile(s) (9.7+ km)
Ceiling:
at least 12,000 feet AGL
Clouds:
Clear Skies
Weather:
no significant weather observed at this time
TAF text:
FM141600 17006KT P6SM SCT040
Forecast period:
Sunday Feb 14 2016 16:00 UTC - Monday Feb 15 2016 07:00 UTC
Forecast type:
FROM: standard forecast or significant change
Winds:
from the S (170 degrees) at 6.9 mph (6 knots: 3.1 m/s)
Visibility:
6 or more mile(s) (9.7+ km)
Ceiling:
at least 12,000 feet AGL
Clouds:
Scattered Clouds at 4,000 feet AGL
Weather:
no significant weather observed at this time
TAF text:
FM150700 17007KT P6SM OVC080
Forecast period:
Monday Feb 15 2016 07:00 UTC - Monday Feb 15 2016 11:00 UTC
Forecast type:
FROM: standard forecast or significant change
Winds:
from the S (170 degrees) at 8.1 mph (7 knots: 3.6 m/s)
Visibility:
6 or more mile(s) (9.7+ km)
Ceiling:
8,000 feet AGL
Clouds:
Overcast Skies at 8,000 feet AGL
Weather:
no significant weather observed at this time
TAF text:
FM151100 16006KT 6SM -SN SCT025 OVC040
Forecast period:
Monday Feb 15 2016 11:00 UTC - Monday Feb 15 2016 12:00 UTC
Forecast type:
FROM: standard forecast or significant change
Winds:
from the SSE (160 degrees) at 6.9 mph (6 knots: 3.1 m/s)
Visibility:
6 mile(s) (9.7 km)
Ceiling:
4,000 feet AGL
Clouds:
Scattered Clouds at 2,500 feet AGL
Overcast Skies at 4,000 feet AGL
Weather:
Light Snow
FBO's on the Field
FBO Company Facility Photos Services Transportation Aviation Fuel Prices: Prices include tax
Catering Weather Repair Courtesy Rental Type 100LL JetA JetA+ MOGAS 8087
 
Aviation Express Inc.

Currently rated 5 by 1 person
FS:Shell
Last Updated: Feb-08
Login to update fuel prices
SS:
Contact Aviation Express Inc.More FBO Information
 
Aviation North

This FBO has not yet been rated
FS:Avfuel
Last Updated: Feb-04
Login to update fuel prices
SS:
Contact Aviation NorthMore FBO Information
 
Add another FBO Facility Photos Catering Weather Repair Courtesy Rental Type 100LL JetA JetA+ MOGAS 8087
Services Transportation Aviation Fuel Prices: Prices include tax


model-print
model-print
model-print
model-print